sensor_id;sensor_type;location;lat;lon;timestamp;temperature;humidity
37289;DHT22;23174;49.462;11.000;2022-09-25T17:45:25;15.40;99.90
37289;DHT22;23174;49.462;11.000;2022-09-25T17:47:26;15.20;99.90
37289;DHT22;23174;49.462;11.000;2022-09-25T17:49:27;15.20;99.90
37289;DHT22;23174;49.462;11.000;2022-09-25T17:51:29;15.10;99.90
37289;DHT22;23174;49.462;11.000;2022-09-25T17:53:31;15.10;99.90
37289;DHT22;23174;49.462;11.000;2022-09-25T17:55:33;15.10;99.90
37289;DHT22;23174;49.462;11.000;2022-09-25T17:57:33;15.00;99.90
37289;DHT22;23174;49.462;11.000;2022-09-25T17:59:34;15.10;99.90
37289;DHT22;23174;49.462;11.000;2022-09-25T18:01:34;15.20;99.90
37289;DHT22;23174;49.462;11.000;2022-09-25T18:03:35;15.00;99.90
37289;DHT22;23174;49.462;11.000;2022-09-25T18:05:35;15.10;99.90
37289;DHT22;23174;49.462;11.000;2022-09-25T18:07:36;15.00;99.90
37289;DHT22;23174;49.462;11.000;2022-09-25T18:09:39;14.90;99.90
37289;DHT22;23174;49.462;11.000;2022-09-25T18:11:39;14.80;99.90
37289;DHT22;23174;49.462;11.000;2022-09-25T18:13:43;14.80;99.90
37289;DHT22;23174;49.462;11.000;2022-09-25T18:15:57;14.80;99.90
37289;DHT22;23174;49.462;11.000;2022-09-25T18:17:58;14.80;99.90
37289;DHT22;23174;49.462;11.000;2022-09-25T18:19:58;14.80;99.90
37289;DHT22;23174;49.462;11.000;2022-09-25T18:22:17;14.80;99.90
37289;DHT22;23174;49.462;11.000;2022-09-25T18:24:20;14.80;99.90
37289;DHT22;23174;49.462;11.000;2022-09-25T18:26:20;14.80;99.90
37289;DHT22;23174;49.462;11.000;2022-09-25T18:28:21;14.80;99.90
37289;DHT22;23174;49.462;11.000;2022-09-25T18:30:23;14.70;99.90
37289;DHT22;23174;49.462;11.000;2022-09-25T18:32:24;14.60;99.90
37289;DHT22;23174;49.462;11.000;2022-09-25T18:34:25;14.70;99.90
37289;DHT22;23174;49.462;11.000;2022-09-25T18:36:26;14.70;99.90
37289;DHT22;23174;49.462;11.000;2022-09-25T18:38:27;14.60;99.90
37289;DHT22;23174;49.462;11.000;2022-09-25T18:40:27;14.70;99.90
37289;DHT22;23174;49.462;11.000;2022-09-25T18:42:28;14.80;99.90
37289;DHT22;23174;49.462;11.000;2022-09-25T18:44:29;14.80;99.90
37289;DHT22;23174;49.462;11.000;2022-09-25T18:46:30;14.80;99.90
37289;DHT22;23174;49.462;11.000;2022-09-25T18:48:31;14.80;99.90
37289;DHT22;23174;49.462;11.000;2022-09-25T18:50:34;14.70;99.90
37289;DHT22;23174;49.462;11.000;2022-09-25T18:52:36;14.70;99.90
37289;DHT22;23174;49.462;11.000;2022-09-25T18:54:36;14.80;99.90
37289;DHT22;23174;49.462;11.000;2022-09-25T18:56:41;14.90;99.90
37289;DHT22;23174;49.462;11.000;2022-09-25T18:58:42;14.80;99.90
37289;DHT22;23174;49.462;11.000;2022-09-25T19:00:42;14.90;99.90
37289;DHT22;23174;49.462;11.000;2022-09-25T19:02:43;14.90;99.90
37289;DHT22;23174;49.462;11.000;2022-09-25T19:04:44;14.70;99.90
37289;DHT22;23174;49.462;11.000;2022-09-25T19:06:45;14.60;99.90
37289;DHT22;23174;49.462;11.000;2022-09-25T19:08:54;14.50;99.90
37289;DHT22;23174;49.462;11.000;2022-09-25T19:10:55;14.60;99.90
37289;DHT22;23174;49.462;11.000;2022-09-25T19:12:57;14.50;99.90
37289;DHT22;23174;49.462;11.000;2022-09-25T19:14:58;14.30;99.90
37289;DHT22;23174;49.462;11.000;2022-09-25T19:16:59;14.20;99.90
37289;DHT22;23174;49.462;11.000;2022-09-25T19:19:00;14.30;99.90
37289;DHT22;23174;49.462;11.000;2022-09-25T19:21:00;14.20;99.90
37289;DHT22;23174;49.462;11.000;2022-09-25T19:23:01;14.10;99.90
37289;DHT22;23174;49.462;11.000;2022-09-25T19:25:02;14.10;99.90
37289;DHT22;23174;49.462;11.000;2022-09-25T19:27:04;14.00;99.90
37289;DHT22;23174;49.462;11.000;2022-09-25T19:29:05;14.10;99.90
37289;DHT22;23174;49.462;11.000;2022-09-25T19:31:17;13.90;99.90
37289;DHT22;23174;49.462;11.000;2022-09-25T19:33:17;14.00;99.90
37289;DHT22;23174;49.462;11.000;2022-09-25T19:35:19;14.00;99.90
37289;DHT22;23174;49.462;11.000;2022-09-25T19:37:19;14.00;99.90
37289;DHT22;23174;49.462;11.000;2022-09-25T19:39:23;13.90;99.90
37289;DHT22;23174;49.462;11.000;2022-09-25T19:41:29;13.90;99.90
37289;DHT22;23174;49.462;11.000;2022-09-25T19:43:33;14.00;99.90
37289;DHT22;23174;49.462;11.000;2022-09-25T19:45:34;13.90;99.90
37289;DHT22;23174;49.462;11.000;2022-09-25T19:47:35;13.80;99.90
37289;DHT22;23174;49.462;11.000;2022-09-25T19:49:36;13.80;99.90
37289;DHT22;23174;49.462;11.000;2022-09-25T19:51:37;13.80;99.90
37289;DHT22;23174;49.462;11.000;2022-09-25T19:53:38;13.70;99.90
37289;DHT22;23174;49.462;11.000;2022-09-25T19:55:40;13.80;99.90
37289;DHT22;23174;49.462;11.000;2022-09-25T19:57:42;13.70;99.90
37289;DHT22;23174;49.462;11.000;2022-09-25T19:59:43;13.80;99.90
37289;DHT22;23174;49.462;11.000;2022-09-25T20:01:44;13.70;99.90
37289;DHT22;23174;49.462;11.000;2022-09-25T20:03:45;13.70;99.90
37289;DHT22;23174;49.462;11.000;2022-09-25T20:05:45;13.70;99.90
37289;DHT22;23174;49.462;11.000;2022-09-25T20:07:48;13.80;99.90
37289;DHT22;23174;49.462;11.000;2022-09-25T20:09:49;13.80;99.90
37289;DHT22;23174;49.462;11.000;2022-09-25T20:11:49;13.70;99.90
37289;DHT22;23174;49.462;11.000;2022-09-25T20:13:51;13.70;99.90
37289;DHT22;23174;49.462;11.000;2022-09-25T20:15:52;13.70;99.90
37289;DHT22;23174;49.462;11.000;2022-09-25T20:17:54;13.80;99.90
37289;DHT22;23174;49.462;11.000;2022-09-25T20:19:55;13.70;99.90
37289;DHT22;23174;49.462;11.000;2022-09-25T20:21:56;13.70;99.90
37289;DHT22;23174;49.462;11.000;2022-09-25T20:23:58;13.80;99.90
37289;DHT22;23174;49.462;11.000;2022-09-25T20:26:10;13.80;99.90
37289;DHT22;23174;49.462;11.000;2022-09-25T20:28:11;13.70;99.90
37289;DHT22;23174;49.462;11.000;2022-09-25T20:30:12;13.70;99.90
37289;DHT22;23174;49.462;11.000;2022-09-25T20:32:13;13.70;99.90
37289;DHT22;23174;49.462;11.000;2022-09-25T20:34:15;13.70;99.90
37289;DHT22;23174;49.462;11.000;2022-09-25T20:36:17;13.80;99.90
37289;DHT22;23174;49.462;11.000;2022-09-25T20:38:17;13.80;99.90
37289;DHT22;23174;49.462;11.000;2022-09-25T20:40:18;13.70;99.90
37289;DHT22;23174;49.462;11.000;2022-09-25T20:42:19;13.80;99.90
37289;DHT22;23174;49.462;11.000;2022-09-25T20:44:20;13.80;99.90
37289;DHT22;23174;49.462;11.000;2022-09-25T20:46:21;13.90;99.90
37289;DHT22;23174;49.462;11.000;2022-09-25T20:48:23;13.80;99.90
37289;DHT22;23174;49.462;11.000;2022-09-25T20:50:23;13.90;99.90
37289;DHT22;23174;49.462;11.000;2022-09-25T20:52:24;13.90;99.90
37289;DHT22;23174;49.462;11.000;2022-09-25T20:54:25;13.90;99.90
37289;DHT22;23174;49.462;11.000;2022-09-25T20:56:27;13.90;99.90
37289;DHT22;23174;49.462;11.000;2022-09-25T20:58:28;13.90;99.90
37289;DHT22;23174;49.462;11.000;2022-09-25T21:00:29;13.80;99.90
37289;DHT22;23174;49.462;11.000;2022-09-25T21:02:31;13.80;99.90
37289;DHT22;23174;49.462;11.000;2022-09-25T21:04:32;13.80;99.90
37289;DHT22;23174;49.462;11.000;2022-09-25T21:06:34;13.90;99.90
37289;DHT22;23174;49.462;11.000;2022-09-25T21:08:35;13.80;99.90
37289;DHT22;23174;49.462;11.000;2022-09-25T21:10:36;13.80;99.90
37289;DHT22;23174;49.462;11.000;2022-09-25T21:12:38;13.80;99.90
37289;DHT22;23174;49.462;11.000;2022-09-25T21:14:38;13.70;99.90
37289;DHT22;23174;49.462;11.000;2022-09-25T21:16:39;13.70;99.90
37289;DHT22;23174;49.462;11.000;2022-09-25T21:18:40;13.80;99.90
37289;DHT22;23174;49.462;11.000;2022-09-25T21:20:41;13.70;99.90
37289;DHT22;23174;49.462;11.000;2022-09-25T21:22:41;13.70;99.90
37289;DHT22;23174;49.462;11.000;2022-09-25T21:24:42;13.70;99.90
37289;DHT22;23174;49.462;11.000;2022-09-25T21:26:43;13.70;99.90
37289;DHT22;23174;49.462;11.000;2022-09-25T21:28:47;13.70;99.90
37289;DHT22;23174;49.462;11.000;2022-09-25T21:30:48;13.70;99.90
37289;DHT22;23174;49.462;11.000;2022-09-25T21:32:48;13.70;99.90
37289;DHT22;23174;49.462;11.000;2022-09-25T21:34:49;13.70;99.90
37289;DHT22;23174;49.462;11.000;2022-09-25T21:36:50;13.70;99.90
37289;DHT22;23174;49.462;11.000;2022-09-25T21:38:50;13.70;99.90
37289;DHT22;23174;49.462;11.000;2022-09-25T21:40:59;13.70;99.90
37289;DHT22;23174;49.462;11.000;2022-09-25T21:43:00;13.80;99.90
37289;DHT22;23174;49.462;11.000;2022-09-25T21:45:01;13.70;99.90
37289;DHT22;23174;49.462;11.000;2022-09-25T21:47:04;13.80;99.90
37289;DHT22;23174;49.462;11.000;2022-09-25T21:49:06;13.70;99.90
37289;DHT22;23174;49.462;11.000;2022-09-25T21:51:07;13.80;99.90
37289;DHT22;23174;49.462;11.000;2022-09-25T21:53:07;13.80;99.90
37289;DHT22;23174;49.462;11.000;2022-09-25T21:55:08;13.80;99.90
37289;DHT22;23174;49.462;11.000;2022-09-25T21:57:09;13.90;99.90
37289;DHT22;23174;49.462;11.000;2022-09-25T21:59:10;14.20;99.90
37289;DHT22;23174;49.462;11.000;2022-09-25T22:01:19;14.30;99.90
37289;DHT22;23174;49.462;11.000;2022-09-25T22:03:20;14.40;99.90
37289;DHT22;23174;49.462;11.000;2022-09-25T22:05:20;14.40;99.90
37289;DHT22;23174;49.462;11.000;2022-09-25T22:07:21;14.60;99.90
37289;DHT22;23174;49.462;11.000;2022-09-25T22:09:23;14.70;99.90
37289;DHT22;23174;49.462;11.000;2022-09-25T22:11:25;14.60;99.90
37289;DHT22;23174;49.462;11.000;2022-09-25T22:13:28;14.40;99.90
37289;DHT22;23174;49.462;11.000;2022-09-25T22:15:29;14.30;99.90
37289;DHT22;23174;49.462;11.000;2022-09-25T22:17:30;14.30;99.90
37289;DHT22;23174;49.462;11.000;2022-09-25T22:19:30;14.30;99.90
37289;DHT22;23174;49.462;11.000;2022-09-25T22:21:32;14.20;99.90
37289;DHT22;23174;49.462;11.000;2022-09-25T22:23:33;14.30;99.90
37289;DHT22;23174;49.462;11.000;2022-09-25T22:25:33;14.30;99.90
37289;DHT22;23174;49.462;11.000;2022-09-25T22:27:34;14.40;99.90
37289;DHT22;23174;49.462;11.000;2022-09-25T22:29:34;14.40;99.90
37289;DHT22;23174;49.462;11.000;2022-09-25T22:31:37;14.40;99.90
37289;DHT22;23174;49.462;11.000;2022-09-25T22:33:40;14.30;99.90
37289;DHT22;23174;49.462;11.000;2022-09-25T22:35:41;14.40;99.90
37289;DHT22;23174;49.462;11.000;2022-09-25T22:37:41;14.40;99.90
37289;DHT22;23174;49.462;11.000;2022-09-25T22:39:42;14.50;99.90
37289;DHT22;23174;49.462;11.000;2022-09-25T22:41:46;14.50;99.90
37289;DHT22;23174;49.462;11.000;2022-09-25T22:43:52;14.60;99.90
37289;DHT22;23174;49.462;11.000;2022-09-25T22:45:53;14.60;99.90
37289;DHT22;23174;49.462;11.000;2022-09-25T22:47:54;14.50;99.90
37289;DHT22;23174;49.462;11.000;2022-09-25T22:49:56;14.60;99.90
37289;DHT22;23174;49.462;11.000;2022-09-25T22:51:57;14.50;99.90
37289;DHT22;23174;49.462;11.000;2022-09-25T22:53:58;14.50;99.90
37289;DHT22;23174;49.462;11.000;2022-09-25T22:58:11;14.70;99.90
37289;DHT22;23174;49.462;11.000;2022-09-25T23:00:12;14.80;99.90
37289;DHT22;23174;49.462;11.000;2022-09-25T23:02:13;14.70;99.90
37289;DHT22;23174;49.462;11.000;2022-09-25T23:04:19;14.60;99.90
37289;DHT22;23174;49.462;11.000;2022-09-25T23:06:21;14.60;99.90
37289;DHT22;23174;49.462;11.000;2022-09-25T23:08:21;14.60;99.90
37289;DHT22;23174;49.462;11.000;2022-09-25T23:10:22;14.60;99.90
37289;DHT22;23174;49.462;11.000;2022-09-25T23:12:22;14.60;99.90
37289;DHT22;23174;49.462;11.000;2022-09-25T23:14:26;14.50;99.90
37289;DHT22;23174;49.462;11.000;2022-09-25T23:16:29;14.50;99.90
37289;DHT22;23174;49.462;11.000;2022-09-25T23:18:36;14.50;99.90
37289;DHT22;23174;49.462;11.000;2022-09-25T23:20:37;14.60;99.90
37289;DHT22;23174;49.462;11.000;2022-09-25T23:22:37;14.60;99.90
37289;DHT22;23174;49.462;11.000;2022-09-25T23:24:38;14.50;99.90
37289;DHT22;23174;49.462;11.000;2022-09-25T23:26:38;14.50;99.90
37289;DHT22;23174;49.462;11.000;2022-09-25T23:28:40;14.50;99.90
37289;DHT22;23174;49.462;11.000;2022-09-25T23:30:40;14.40;99.90
37289;DHT22;23174;49.462;11.000;2022-09-25T23:32:41;14.40;99.90
37289;DHT22;23174;49.462;11.000;2022-09-25T23:34:42;14.40;99.90
37289;DHT22;23174;49.462;11.000;2022-09-25T23:36:43;14.40;99.90
37289;DHT22;23174;49.462;11.000;2022-09-25T23:38:44;14.40;99.90
37289;DHT22;23174;49.462;11.000;2022-09-25T23:40:45;14.30;99.90
37289;DHT22;23174;49.462;11.000;2022-09-25T23:42:45;14.30;99.90
37289;DHT22;23174;49.462;11.000;2022-09-25T23:44:46;14.40;99.90
37289;DHT22;23174;49.462;11.000;2022-09-25T23:46:47;14.40;99.90
37289;DHT22;23174;49.462;11.000;2022-09-25T23:48:48;14.40;99.90
37289;DHT22;23174;49.462;11.000;2022-09-25T23:50:49;14.40;99.90
37289;DHT22;23174;49.462;11.000;2022-09-25T23:52:51;14.30;99.90
37289;DHT22;23174;49.462;11.000;2022-09-25T23:54:52;14.30;99.90
37289;DHT22;23174;49.462;11.000;2022-09-25T23:56:53;14.20;99.90
37289;DHT22;23174;49.462;11.000;2022-09-25T23:58:56;14.30;99.90
